sensor_id;sensor_type;location;lat;lon;timestamp;temperature;humidity
14182;DHT22;7171;50.936;6.764;2023-07-31T00:02:20;17.40;99.90
14182;DHT22;7171;50.936;6.764;2023-07-31T00:04:47;17.40;99.90
14182;DHT22;7171;50.936;6.764;2023-07-31T00:07:14;17.40;99.90
14182;DHT22;7171;50.936;6.764;2023-07-31T00:09:41;17.40;99.90
14182;DHT22;7171;50.936;6.764;2023-07-31T00:12:08;17.50;99.90
14182;DHT22;7171;50.936;6.764;2023-07-31T00:14:35;17.50;99.90
14182;DHT22;7171;50.936;6.764;2023-07-31T00:17:01;17.50;99.90
14182;DHT22;7171;50.936;6.764;2023-07-31T00:19:29;17.50;99.90
14182;DHT22;7171;50.936;6.764;2023-07-31T00:21:56;17.50;99.90
14182;DHT22;7171;50.936;6.764;2023-07-31T00:24:23;17.50;99.90
14182;DHT22;7171;50.936;6.764;2023-07-31T00:26:49;17.60;99.90
14182;DHT22;7171;50.936;6.764;2023-07-31T00:29:16;17.60;99.90
14182;DHT22;7171;50.936;6.764;2023-07-31T00:31:43;17.60;99.90
14182;DHT22;7171;50.936;6.764;2023-07-31T00:34:09;17.60;99.90
14182;DHT22;7171;50.936;6.764;2023-07-31T00:36:37;17.60;99.90
14182;DHT22;7171;50.936;6.764;2023-07-31T00:39:04;17.60;99.90
14182;DHT22;7171;50.936;6.764;2023-07-31T00:41:31;17.60;99.90
14182;DHT22;7171;50.936;6.764;2023-07-31T00:43:57;17.60;99.90
14182;DHT22;7171;50.936;6.764;2023-07-31T00:46:24;17.60;99.90
14182;DHT22;7171;50.936;6.764;2023-07-31T00:48:51;17.60;99.90
14182;DHT22;7171;50.936;6.764;2023-07-31T00:51:18;17.70;99.90
14182;DHT22;7171;50.936;6.764;2023-07-31T00:53:47;17.60;99.90
14182;DHT22;7171;50.936;6.764;2023-07-31T00:56:14;17.70;99.90
14182;DHT22;7171;50.936;6.764;2023-07-31T00:58:40;17.70;99.90
14182;DHT22;7171;50.936;6.764;2023-07-31T01:01:07;18.40;99.90
14182;DHT22;7171;50.936;6.764;2023-07-31T01:03:34;19.80;99.90
14182;DHT22;7171;50.936;6.764;2023-07-31T01:06:10;17.80;99.90
14182;DHT22;7171;50.936;6.764;2023-07-31T01:08:43;17.80;99.90
14182;DHT22;7171;50.936;6.764;2023-07-31T01:11:16;17.80;99.90
14182;DHT22;7171;50.936;6.764;2023-07-31T01:13:44;17.80;99.90
14182;DHT22;7171;50.936;6.764;2023-07-31T01:16:11;17.80;99.90
14182;DHT22;7171;50.936;6.764;2023-07-31T01:18:38;17.80;99.90
14182;DHT22;7171;50.936;6.764;2023-07-31T01:21:19;18.40;99.90
14182;DHT22;7171;50.936;6.764;2023-07-31T01:24:08;17.80;99.90
14182;DHT22;7171;50.936;6.764;2023-07-31T01:26:43;17.90;99.90
14182;DHT22;7171;50.936;6.764;2023-07-31T01:29:20;18.70;99.90
14182;DHT22;7171;50.936;6.764;2023-07-31T01:31:48;17.90;99.90
14182;DHT22;7171;50.936;6.764;2023-07-31T01:34:17;20.90;99.90
14182;DHT22;7171;50.936;6.764;2023-07-31T01:36:44;17.90;99.90
14182;DHT22;7171;50.936;6.764;2023-07-31T01:39:10;17.90;99.90
14182;DHT22;7171;50.936;6.764;2023-07-31T01:41:37;17.90;99.90
14182;DHT22;7171;50.936;6.764;2023-07-31T01:44:06;17.90;99.90
14182;DHT22;7171;50.936;6.764;2023-07-31T01:46:33;18.00;99.90
14182;DHT22;7171;50.936;6.764;2023-07-31T01:48:59;18.00;99.90
14182;DHT22;7171;50.936;6.764;2023-07-31T01:51:26;18.00;99.90
14182;DHT22;7171;50.936;6.764;2023-07-31T01:53:53;18.10;99.90
14182;DHT22;7171;50.936;6.764;2023-07-31T01:56:19;18.10;99.90
14182;DHT22;7171;50.936;6.764;2023-07-31T01:58:46;18.10;99.90
14182;DHT22;7171;50.936;6.764;2023-07-31T02:01:14;18.10;99.90
14182;DHT22;7171;50.936;6.764;2023-07-31T02:03:41;18.10;99.90
14182;DHT22;7171;50.936;6.764;2023-07-31T02:06:08;20.60;99.90
14182;DHT22;7171;50.936;6.764;2023-07-31T02:08:34;18.20;99.90
14182;DHT22;7171;50.936;6.764;2023-07-31T02:11:01;18.40;99.90
14182;DHT22;7171;50.936;6.764;2023-07-31T02:13:28;18.20;99.90
14182;DHT22;7171;50.936;6.764;2023-07-31T02:15:54;18.20;99.90
14182;DHT22;7171;50.936;6.764;2023-07-31T02:18:23;18.20;99.90
14182;DHT22;7171;50.936;6.764;2023-07-31T02:20:50;18.30;99.90
14182;DHT22;7171;50.936;6.764;2023-07-31T02:23:17;18.30;99.90
14182;DHT22;7171;50.936;6.764;2023-07-31T02:25:44;18.30;99.90
14182;DHT22;7171;50.936;6.764;2023-07-31T02:28:11;18.30;99.90
14182;DHT22;7171;50.936;6.764;2023-07-31T02:30:38;18.30;99.90
14182;DHT22;7171;50.936;6.764;2023-07-31T02:33:05;18.40;99.90
14182;DHT22;7171;50.936;6.764;2023-07-31T02:35:33;18.40;99.90
14182;DHT22;7171;50.936;6.764;2023-07-31T02:38:00;18.40;99.90
14182;DHT22;7171;50.936;6.764;2023-07-31T02:40:26;18.40;99.90
14182;DHT22;7171;50.936;6.764;2023-07-31T02:42:53;18.40;99.90
14182;DHT22;7171;50.936;6.764;2023-07-31T02:45:20;18.40;99.90
14182;DHT22;7171;50.936;6.764;2023-07-31T02:47:46;18.40;99.90
14182;DHT22;7171;50.936;6.764;2023-07-31T02:50:13;18.50;99.90
14182;DHT22;7171;50.936;6.764;2023-07-31T02:52:41;18.40;99.90
14182;DHT22;7171;50.936;6.764;2023-07-31T02:55:08;18.50;99.90
14182;DHT22;7171;50.936;6.764;2023-07-31T02:57:35;18.40;99.90
14182;DHT22;7171;50.936;6.764;2023-07-31T03:00:01;18.50;99.90
14182;DHT22;7171;50.936;6.764;2023-07-31T03:02:31;18.50;99.90
14182;DHT22;7171;50.936;6.764;2023-07-31T03:04:58;18.50;99.90
14182;DHT22;7171;50.936;6.764;2023-07-31T03:07:24;20.20;99.90
14182;DHT22;7171;50.936;6.764;2023-07-31T03:09:52;18.60;99.90
14182;DHT22;7171;50.936;6.764;2023-07-31T03:12:19;18.50;99.90
14182;DHT22;7171;50.936;6.764;2023-07-31T03:14:46;18.60;99.90
14182;DHT22;7171;50.936;6.764;2023-07-31T03:17:12;18.60;99.90
14182;DHT22;7171;50.936;6.764;2023-07-31T03:19:39;18.60;99.90
14182;DHT22;7171;50.936;6.764;2023-07-31T03:22:06;18.60;99.90
14182;DHT22;7171;50.936;6.764;2023-07-31T03:24:33;18.60;99.90
14182;DHT22;7171;50.936;6.764;2023-07-31T03:27:01;18.60;99.90
14182;DHT22;7171;50.936;6.764;2023-07-31T03:29:27;19.70;99.90
14182;DHT22;7171;50.936;6.764;2023-07-31T03:31:54;18.60;99.90
14182;DHT22;7171;50.936;6.764;2023-07-31T03:34:21;18.60;99.90
14182;DHT22;7171;50.936;6.764;2023-07-31T03:36:48;18.60;99.90
14182;DHT22;7171;50.936;6.764;2023-07-31T03:39:14;18.60;99.90
14182;DHT22;7171;50.936;6.764;2023-07-31T03:41:41;18.60;99.90
14182;DHT22;7171;50.936;6.764;2023-07-31T03:44:09;19.40;99.90
14182;DHT22;7171;50.936;6.764;2023-07-31T03:46:36;18.60;99.90
14182;DHT22;7171;50.936;6.764;2023-07-31T03:49:03;18.60;99.90
14182;DHT22;7171;50.936;6.764;2023-07-31T03:51:29;18.60;99.90
14182;DHT22;7171;50.936;6.764;2023-07-31T03:53:56;18.60;99.90
14182;DHT22;7171;50.936;6.764;2023-07-31T03:56:23;18.60;99.90
14182;DHT22;7171;50.936;6.764;2023-07-31T03:58:49;18.50;99.90
14182;DHT22;7171;50.936;6.764;2023-07-31T04:01:19;18.60;99.90
14182;DHT22;7171;50.936;6.764;2023-07-31T04:03:46;18.50;99.90
14182;DHT22;7171;50.936;6.764;2023-07-31T04:06:12;18.50;99.90
14182;DHT22;7171;50.936;6.764;2023-07-31T04:08:43;18.60;99.90
14182;DHT22;7171;50.936;6.764;2023-07-31T04:11:10;18.60;99.90
14182;DHT22;7171;50.936;6.764;2023-07-31T04:13:36;18.60;99.90
14182;DHT22;7171;50.936;6.764;2023-07-31T04:16:03;18.60;99.90
14182;DHT22;7171;50.936;6.764;2023-07-31T04:18:31;19.70;99.90
14182;DHT22;7171;50.936;6.764;2023-07-31T04:20:58;18.60;99.90
14182;DHT22;7171;50.936;6.764;2023-07-31T04:23:26;18.60;99.90
14182;DHT22;7171;50.936;6.764;2023-07-31T04:25:53;18.60;99.90
14182;DHT22;7171;50.936;6.764;2023-07-31T04:28:20;18.60;99.90
14182;DHT22;7171;50.936;6.764;2023-07-31T04:30:47;18.60;99.90
14182;DHT22;7171;50.936;6.764;2023-07-31T04:33:13;18.60;99.90
14182;DHT22;7171;50.936;6.764;2023-07-31T04:35:41;18.60;99.90
14182;DHT22;7171;50.936;6.764;2023-07-31T04:38:08;18.60;99.90
14182;DHT22;7171;50.936;6.764;2023-07-31T04:40:35;18.60;99.90
14182;DHT22;7171;50.936;6.764;2023-07-31T04:43:01;18.60;99.90
14182;DHT22;7171;50.936;6.764;2023-07-31T04:45:28;18.60;99.90
14182;DHT22;7171;50.936;6.764;2023-07-31T04:47:55;18.60;99.90
14182;DHT22;7171;50.936;6.764;2023-07-31T04:50:21;18.60;99.90
14182;DHT22;7171;50.936;6.764;2023-07-31T04:52:49;18.60;99.90
14182;DHT22;7171;50.936;6.764;2023-07-31T04:55:16;18.60;99.90
14182;DHT22;7171;50.936;6.764;2023-07-31T04:57:43;18.70;99.90
14182;DHT22;7171;50.936;6.764;2023-07-31T05:00:10;18.70;99.90
14182;DHT22;7171;50.936;6.764;2023-07-31T05:02:37;18.70;99.90
14182;DHT22;7171;50.936;6.764;2023-07-31T05:05:04;18.70;99.90
14182;DHT22;7171;50.936;6.764;2023-07-31T05:07:31;18.70;99.90
14182;DHT22;7171;50.936;6.764;2023-07-31T05:09:59;18.80;99.90
14182;DHT22;7171;50.936;6.764;2023-07-31T05:12:26;18.80;99.90
14182;DHT22;7171;50.936;6.764;2023-07-31T05:14:52;18.80;99.90
14182;DHT22;7171;50.936;6.764;2023-07-31T05:17:19;18.80;99.90
14182;DHT22;7171;50.936;6.764;2023-07-31T05:19:46;18.90;99.90
14182;DHT22;7171;50.936;6.764;2023-07-31T05:22:12;18.90;99.90
14182;DHT22;7171;50.936;6.764;2023-07-31T05:24:39;18.90;99.90
14182;DHT22;7171;50.936;6.764;2023-07-31T05:27:07;18.90;99.90
14182;DHT22;7171;50.936;6.764;2023-07-31T05:29:35;18.90;99.90
14182;DHT22;7171;50.936;6.764;2023-07-31T05:32:02;18.90;99.90
14182;DHT22;7171;50.936;6.764;2023-07-31T05:34:28;18.90;99.90
14182;DHT22;7171;50.936;6.764;2023-07-31T05:36:55;19.00;99.90
14182;DHT22;7171;50.936;6.764;2023-07-31T05:39:22;19.00;99.90
14182;DHT22;7171;50.936;6.764;2023-07-31T05:41:48;19.00;99.90
14182;DHT22;7171;50.936;6.764;2023-07-31T05:44:16;19.00;99.90
14182;DHT22;7171;50.936;6.764;2023-07-31T05:46:43;19.00;99.90
14182;DHT22;7171;50.936;6.764;2023-07-31T05:49:10;19.00;99.90
14182;DHT22;7171;50.936;6.764;2023-07-31T05:51:37;19.10;99.90
14182;DHT22;7171;50.936;6.764;2023-07-31T05:54:03;19.10;99.90
14182;DHT22;7171;50.936;6.764;2023-07-31T05:56:30;19.00;99.90
14182;DHT22;7171;50.936;6.764;2023-07-31T05:58:59;19.10;99.90
14182;DHT22;7171;50.936;6.764;2023-07-31T06:01:27;19.10;99.90
14182;DHT22;7171;50.936;6.764;2023-07-31T06:03:53;19.10;99.90
14182;DHT22;7171;50.936;6.764;2023-07-31T06:06:20;19.00;99.90
14182;DHT22;7171;50.936;6.764;2023-07-31T06:08:47;19.00;99.90
14182;DHT22;7171;50.936;6.764;2023-07-31T06:11:13;20.90;99.90
14182;DHT22;7171;50.936;6.764;2023-07-31T06:13:40;19.00;99.90
14182;DHT22;7171;50.936;6.764;2023-07-31T06:16:07;19.00;99.90
14182;DHT22;7171;50.936;6.764;2023-07-31T06:18:35;18.90;99.90
14182;DHT22;7171;50.936;6.764;2023-07-31T06:21:02;18.90;99.90
14182;DHT22;7171;50.936;6.764;2023-07-31T06:23:29;18.90;99.90
14182;DHT22;7171;50.936;6.764;2023-07-31T06:25:55;18.90;99.90
14182;DHT22;7171;50.936;6.764;2023-07-31T06:28:27;18.80;99.90
14182;DHT22;7171;50.936;6.764;2023-07-31T06:30:54;18.80;99.90
14182;DHT22;7171;50.936;6.764;2023-07-31T06:33:21;18.80;99.90
14182;DHT22;7171;50.936;6.764;2023-07-31T06:35:49;18.80;99.90
14182;DHT22;7171;50.936;6.764;2023-07-31T06:38:18;18.80;99.90
14182;DHT22;7171;50.936;6.764;2023-07-31T06:40:45;18.80;99.90
14182;DHT22;7171;50.936;6.764;2023-07-31T06:43:11;18.70;99.90
14182;DHT22;7171;50.936;6.764;2023-07-31T06:45:38;18.70;99.90
14182;DHT22;7171;50.936;6.764;2023-07-31T06:48:05;18.70;99.90
14182;DHT22;7171;50.936;6.764;2023-07-31T06:50:31;18.80;99.90
14182;DHT22;7171;50.936;6.764;2023-07-31T06:53:00;18.80;99.90
14182;DHT22;7171;50.936;6.764;2023-07-31T06:55:26;21.10;99.90
14182;DHT22;7171;50.936;6.764;2023-07-31T06:57:54;20.10;99.90
14182;DHT22;7171;50.936;6.764;2023-07-31T07:00:22;18.90;99.90
14182;DHT22;7171;50.936;6.764;2023-07-31T07:02:50;18.90;99.90
14182;DHT22;7171;50.936;6.764;2023-07-31T07:05:17;19.00;99.90
14182;DHT22;7171;50.936;6.764;2023-07-31T07:07:44;19.00;99.90
14182;DHT22;7171;50.936;6.764;2023-07-31T07:10:12;19.00;99.90
14182;DHT22;7171;50.936;6.764;2023-07-31T07:12:39;19.10;99.90
14182;DHT22;7171;50.936;6.764;2023-07-31T07:15:06;19.10;99.90
14182;DHT22;7171;50.936;6.764;2023-07-31T07:17:33;19.10;99.90
14182;DHT22;7171;50.936;6.764;2023-07-31T07:20:00;19.10;99.90
14182;DHT22;7171;50.936;6.764;2023-07-31T07:22:28;19.20;99.90
14182;DHT22;7171;50.936;6.764;2023-07-31T07:24:55;19.20;99.90
14182;DHT22;7171;50.936;6.764;2023-07-31T07:27:23;19.20;99.90
14182;DHT22;7171;50.936;6.764;2023-07-31T07:29:51;19.20;99.90
14182;DHT22;7171;50.936;6.764;2023-07-31T07:32:18;19.30;99.90
14182;DHT22;7171;50.936;6.764;2023-07-31T07:34:45;19.20;99.90
14182;DHT22;7171;50.936;6.764;2023-07-31T07:37:11;19.20;99.90
14182;DHT22;7171;50.936;6.764;2023-07-31T07:39:38;19.20;99.90
14182;DHT22;7171;50.936;6.764;2023-07-31T07:42:05;19.20;99.90
14182;DHT22;7171;50.936;6.764;2023-07-31T07:44:33;19.20;99.90
14182;DHT22;7171;50.936;6.764;2023-07-31T07:47:00;19.20;99.90
14182;DHT22;7171;50.936;6.764;2023-07-31T07:49:26;19.10;99.90
14182;DHT22;7171;50.936;6.764;2023-07-31T07:51:53;19.10;99.90
14182;DHT22;7171;50.936;6.764;2023-07-31T07:54:20;19.10;99.90
14182;DHT22;7171;50.936;6.764;2023-07-31T07:56:47;19.00;99.90
14182;DHT22;7171;50.936;6.764;2023-07-31T07:59:13;19.00;99.90
14182;DHT22;7171;50.936;6.764;2023-07-31T08:01:42;21.00;99.90
14182;DHT22;7171;50.936;6.764;2023-07-31T08:04:08;18.90;99.90
14182;DHT22;7171;50.936;6.764;2023-07-31T08:06:35;19.00;99.90
14182;DHT22;7171;50.936;6.764;2023-07-31T08:09:02;18.90;99.90
14182;DHT22;7171;50.936;6.764;2023-07-31T08:11:31;18.90;99.90
14182;DHT22;7171;50.936;6.764;2023-07-31T08:13:58;18.90;99.90
14182;DHT22;7171;50.936;6.764;2023-07-31T08:16:25;18.80;99.90
14182;DHT22;7171;50.936;6.764;2023-07-31T08:18:53;18.80;99.90
14182;DHT22;7171;50.936;6.764;2023-07-31T08:21:20;18.80;99.90
14182;DHT22;7171;50.936;6.764;2023-07-31T08:23:47;18.80;99.90
14182;DHT22;7171;50.936;6.764;2023-07-31T08:26:17;18.80;99.90
14182;DHT22;7171;50.936;6.764;2023-07-31T08:28:44;18.80;99.90
14182;DHT22;7171;50.936;6.764;2023-07-31T08:31:11;18.80;99.90
14182;DHT22;7171;50.936;6.764;2023-07-31T08:33:38;18.80;99.90
14182;DHT22;7171;50.936;6.764;2023-07-31T08:36:07;18.90;99.90
14182;DHT22;7171;50.936;6.764;2023-07-31T08:38:33;18.80;99.90
14182;DHT22;7171;50.936;6.764;2023-07-31T08:41:00;18.80;99.90
14182;DHT22;7171;50.936;6.764;2023-07-31T08:43:30;18.80;99.90
14182;DHT22;7171;50.936;6.764;2023-07-31T08:45:56;18.80;99.90
14182;DHT22;7171;50.936;6.764;2023-07-31T08:48:23;18.80;99.90
14182;DHT22;7171;50.936;6.764;2023-07-31T08:50:51;18.80;99.90
14182;DHT22;7171;50.936;6.764;2023-07-31T08:53:20;18.80;99.90
14182;DHT22;7171;50.936;6.764;2023-07-31T08:55:47;18.80;99.90
14182;DHT22;7171;50.936;6.764;2023-07-31T08:58:15;18.80;99.90
14182;DHT22;7171;50.936;6.764;2023-07-31T09:00:46;19.70;99.90
14182;DHT22;7171;50.936;6.764;2023-07-31T09:03:14;18.80;99.90
14182;DHT22;7171;50.936;6.764;2023-07-31T09:05:43;18.80;99.90
14182;DHT22;7171;50.936;6.764;2023-07-31T09:08:11;18.80;99.90
14182;DHT22;7171;50.936;6.764;2023-07-31T09:10:41;18.80;99.90
14182;DHT22;7171;50.936;6.764;2023-07-31T09:13:09;18.80;99.90
14182;DHT22;7171;50.936;6.764;2023-07-31T09:15:36;18.80;99.90
14182;DHT22;7171;50.936;6.764;2023-07-31T09:18:04;18.80;99.90
14182;DHT22;7171;50.936;6.764;2023-07-31T09:20:32;18.80;99.90
14182;DHT22;7171;50.936;6.764;2023-07-31T09:23:06;18.80;99.90
14182;DHT22;7171;50.936;6.764;2023-07-31T09:25:34;18.90;99.90
14182;DHT22;7171;50.936;6.764;2023-07-31T09:28:04;18.90;99.90
14182;DHT22;7171;50.936;6.764;2023-07-31T09:30:32;18.90;99.90
14182;DHT22;7171;50.936;6.764;2023-07-31T09:33:09;18.90;99.90
14182;DHT22;7171;50.936;6.764;2023-07-31T09:35:36;19.90;99.90
14182;DHT22;7171;50.936;6.764;2023-07-31T09:38:07;19.00;99.90
14182;DHT22;7171;50.936;6.764;2023-07-31T09:40:35;19.00;99.90
14182;DHT22;7171;50.936;6.764;2023-07-31T09:43:05;19.10;99.90
14182;DHT22;7171;50.936;6.764;2023-07-31T09:45:34;19.10;99.90
14182;DHT22;7171;50.936;6.764;2023-07-31T09:48:03;19.10;99.90
14182;DHT22;7171;50.936;6.764;2023-07-31T09:50:30;19.20;99.90
14182;DHT22;7171;50.936;6.764;2023-07-31T09:52:56;19.20;99.90
14182;DHT22;7171;50.936;6.764;2023-07-31T09:55:24;19.10;99.90
14182;DHT22;7171;50.936;6.764;2023-07-31T09:57:51;19.20;99.90
14182;DHT22;7171;50.936;6.764;2023-07-31T10:00:19;19.30;99.90
14182;DHT22;7171;50.936;6.764;2023-07-31T10:02:48;19.30;99.90
14182;DHT22;7171;50.936;6.764;2023-07-31T10:05:17;19.40;99.90
14182;DHT22;7171;50.936;6.764;2023-07-31T10:07:51;19.40;99.90
14182;DHT22;7171;50.936;6.764;2023-07-31T10:10:20;19.50;99.90
14182;DHT22;7171;50.936;6.764;2023-07-31T10:12:48;19.50;99.90
14182;DHT22;7171;50.936;6.764;2023-07-31T10:15:15;20.30;99.90
14182;DHT22;7171;50.936;6.764;2023-07-31T10:17:44;21.60;99.90
14182;DHT22;7171;50.936;6.764;2023-07-31T10:20:11;19.70;99.90
14182;DHT22;7171;50.936;6.764;2023-07-31T10:22:38;19.70;99.90
14182;DHT22;7171;50.936;6.764;2023-07-31T10:25:08;19.70;99.90
14182;DHT22;7171;50.936;6.764;2023-07-31T10:27:35;19.80;99.90
14182;DHT22;7171;50.936;6.764;2023-07-31T10:30:07;19.80;99.90
14182;DHT22;7171;50.936;6.764;2023-07-31T10:32:34;19.80;99.90
14182;DHT22;7171;50.936;6.764;2023-07-31T10:35:03;19.90;99.90
14182;DHT22;7171;50.936;6.764;2023-07-31T10:37:36;19.90;99.90
14182;DHT22;7171;50.936;6.764;2023-07-31T10:40:05;19.90;99.90
14182;DHT22;7171;50.936;6.764;2023-07-31T10:42:34;20.00;99.90
14182;DHT22;7171;50.936;6.764;2023-07-31T10:45:02;20.00;99.90
14182;DHT22;7171;50.936;6.764;2023-07-31T10:47:29;20.00;99.90
14182;DHT22;7171;50.936;6.764;2023-07-31T10:50:13;20.00;99.90
14182;DHT22;7171;50.936;6.764;2023-07-31T10:52:40;20.00;99.90
14182;DHT22;7171;50.936;6.764;2023-07-31T10:55:26;20.00;99.90
14182;DHT22;7171;50.936;6.764;2023-07-31T10:57:53;20.00;99.90
14182;DHT22;7171;50.936;6.764;2023-07-31T11:00:22;20.00;99.90
14182;DHT22;7171;50.936;6.764;2023-07-31T11:02:58;19.90;99.90
14182;DHT22;7171;50.936;6.764;2023-07-31T11:05:47;19.80;99.90
14182;DHT22;7171;50.936;6.764;2023-07-31T11:08:16;19.80;99.90
14182;DHT22;7171;50.936;6.764;2023-07-31T11:10:45;19.70;99.90
14182;DHT22;7171;50.936;6.764;2023-07-31T11:13:12;20.20;99.90
14182;DHT22;7171;50.936;6.764;2023-07-31T11:15:39;19.70;99.90
14182;DHT22;7171;50.936;6.764;2023-07-31T11:18:06;19.70;99.90
14182;DHT22;7171;50.936;6.764;2023-07-31T11:20:34;20.20;99.90
14182;DHT22;7171;50.936;6.764;2023-07-31T11:23:04;19.60;99.90
14182;DHT22;7171;50.936;6.764;2023-07-31T11:25:32;20.00;99.90
14182;DHT22;7171;50.936;6.764;2023-07-31T11:28:03;19.70;99.90
14182;DHT22;7171;50.936;6.764;2023-07-31T11:30:30;19.80;99.90
14182;DHT22;7171;50.936;6.764;2023-07-31T11:32:57;19.80;99.90
14182;DHT22;7171;50.936;6.764;2023-07-31T11:35:23;19.90;99.90
14182;DHT22;7171;50.936;6.764;2023-07-31T11:37:50;19.90;99.90
14182;DHT22;7171;50.936;6.764;2023-07-31T11:40:18;20.00;99.90
14182;DHT22;7171;50.936;6.764;2023-07-31T11:42:45;21.30;99.90
14182;DHT22;7171;50.936;6.764;2023-07-31T11:45:12;20.20;99.90
14182;DHT22;7171;50.936;6.764;2023-07-31T11:47:38;20.30;99.90
14182;DHT22;7171;50.936;6.764;2023-07-31T11:50:11;20.40;99.90
14182;DHT22;7171;50.936;6.764;2023-07-31T11:52:41;20.50;99.90
14182;DHT22;7171;50.936;6.764;2023-07-31T11:55:09;20.60;99.90
14182;DHT22;7171;50.936;6.764;2023-07-31T11:57:39;20.70;99.90
14182;DHT22;7171;50.936;6.764;2023-07-31T12:00:08;20.90;99.90
14182;DHT22;7171;50.936;6.764;2023-07-31T12:02:36;20.80;99.90
14182;DHT22;7171;50.936;6.764;2023-07-31T12:05:05;20.70;99.90
14182;DHT22;7171;50.936;6.764;2023-07-31T12:07:44;20.70;99.90
14182;DHT22;7171;50.936;6.764;2023-07-31T12:10:11;20.70;99.90
14182;DHT22;7171;50.936;6.764;2023-07-31T12:12:39;20.80;99.90
14182;DHT22;7171;50.936;6.764;2023-07-31T12:15:14;20.70;99.90
14182;DHT22;7171;50.936;6.764;2023-07-31T12:17:41;20.70;99.90
14182;DHT22;7171;50.936;6.764;2023-07-31T12:20:09;20.70;99.90
14182;DHT22;7171;50.936;6.764;2023-07-31T12:22:36;20.70;99.90
14182;DHT22;7171;50.936;6.764;2023-07-31T12:25:04;20.70;99.90
14182;DHT22;7171;50.936;6.764;2023-07-31T12:27:33;20.60;99.90
14182;DHT22;7171;50.936;6.764;2023-07-31T12:30:01;20.60;99.90
14182;DHT22;7171;50.936;6.764;2023-07-31T12:32:30;20.50;99.90
14182;DHT22;7171;50.936;6.764;2023-07-31T12:34:59;20.60;99.90
14182;DHT22;7171;50.936;6.764;2023-07-31T12:37:28;20.70;99.90
14182;DHT22;7171;50.936;6.764;2023-07-31T12:39:55;20.70;99.90
14182;DHT22;7171;50.936;6.764;2023-07-31T12:42:26;20.70;99.90
14182;DHT22;7171;50.936;6.764;2023-07-31T12:44:53;20.70;99.90
14182;DHT22;7171;50.936;6.764;2023-07-31T12:47:21;20.70;99.90
14182;DHT22;7171;50.936;6.764;2023-07-31T12:49:47;20.70;99.90
14182;DHT22;7171;50.936;6.764;2023-07-31T12:52:14;20.70;99.90
14182;DHT22;7171;50.936;6.764;2023-07-31T12:54:41;20.70;99.90
14182;DHT22;7171;50.936;6.764;2023-07-31T12:57:07;20.70;99.90
14182;DHT22;7171;50.936;6.764;2023-07-31T12:59:34;20.70;99.90
14182;DHT22;7171;50.936;6.764;2023-07-31T13:02:01;23.50;99.90
14182;DHT22;7171;50.936;6.764;2023-07-31T13:04:29;20.80;99.90
14182;DHT22;7171;50.936;6.764;2023-07-31T13:06:56;20.80;99.90
14182;DHT22;7171;50.936;6.764;2023-07-31T13:09:22;20.90;99.90
14182;DHT22;7171;50.936;6.764;2023-07-31T13:11:49;22.20;99.90
14182;DHT22;7171;50.936;6.764;2023-07-31T13:14:16;20.90;99.90
14182;DHT22;7171;50.936;6.764;2023-07-31T13:16:43;20.90;99.90
14182;DHT22;7171;50.936;6.764;2023-07-31T13:19:09;21.00;99.90
14182;DHT22;7171;50.936;6.764;2023-07-31T13:21:37;21.00;99.90
14182;DHT22;7171;50.936;6.764;2023-07-31T13:24:05;21.00;99.90
14182;DHT22;7171;50.936;6.764;2023-07-31T13:26:32;21.00;99.90
14182;DHT22;7171;50.936;6.764;2023-07-31T13:28:59;21.00;99.90
14182;DHT22;7171;50.936;6.764;2023-07-31T13:31:26;21.10;99.90
14182;DHT22;7171;50.936;6.764;2023-07-31T13:33:53;21.10;99.90
14182;DHT22;7171;50.936;6.764;2023-07-31T13:36:19;21.20;99.90
14182;DHT22;7171;50.936;6.764;2023-07-31T13:38:47;21.30;99.90
14182;DHT22;7171;50.936;6.764;2023-07-31T13:41:14;21.30;99.90
14182;DHT22;7171;50.936;6.764;2023-07-31T13:43:41;21.40;99.90
14182;DHT22;7171;50.936;6.764;2023-07-31T13:46:07;21.40;99.90
14182;DHT22;7171;50.936;6.764;2023-07-31T13:48:36;21.50;99.90
14182;DHT22;7171;50.936;6.764;2023-07-31T13:51:03;21.60;99.90
14182;DHT22;7171;50.936;6.764;2023-07-31T13:53:30;21.70;99.90
14182;DHT22;7171;50.936;6.764;2023-07-31T13:55:58;21.80;99.90
14182;DHT22;7171;50.936;6.764;2023-07-31T13:58:25;22.10;99.90
14182;DHT22;7171;50.936;6.764;2023-07-31T14:00:51;22.20;99.90
14182;DHT22;7171;50.936;6.764;2023-07-31T14:03:18;22.40;99.90
14182;DHT22;7171;50.936;6.764;2023-07-31T14:05:45;22.50;99.90
14182;DHT22;7171;50.936;6.764;2023-07-31T14:08:12;22.60;99.90
14182;DHT22;7171;50.936;6.764;2023-07-31T14:10:38;22.60;99.90
14182;DHT22;7171;50.936;6.764;2023-07-31T14:13:06;22.60;99.90
14182;DHT22;7171;50.936;6.764;2023-07-31T14:15:33;22.50;99.90
14182;DHT22;7171;50.936;6.764;2023-07-31T14:18:01;22.50;99.90
14182;DHT22;7171;50.936;6.764;2023-07-31T14:20:27;22.40;99.90
14182;DHT22;7171;50.936;6.764;2023-07-31T14:22:54;22.40;99.90
14182;DHT22;7171;50.936;6.764;2023-07-31T14:25:21;22.30;99.90
14182;DHT22;7171;50.936;6.764;2023-07-31T14:27:48;22.30;99.90
14182;DHT22;7171;50.936;6.764;2023-07-31T14:30:16;22.20;99.90
14182;DHT22;7171;50.936;6.764;2023-07-31T14:32:43;22.10;99.90
14182;DHT22;7171;50.936;6.764;2023-07-31T14:35:10;22.00;99.90
14182;DHT22;7171;50.936;6.764;2023-07-31T14:37:38;22.00;99.90
14182;DHT22;7171;50.936;6.764;2023-07-31T14:40:06;22.00;99.90
14182;DHT22;7171;50.936;6.764;2023-07-31T14:42:33;21.90;99.90
14182;DHT22;7171;50.936;6.764;2023-07-31T14:45:00;21.90;99.90
14182;DHT22;7171;50.936;6.764;2023-07-31T14:47:28;21.90;99.90
14182;DHT22;7171;50.936;6.764;2023-07-31T14:49:56;21.90;99.90
14182;DHT22;7171;50.936;6.764;2023-07-31T14:52:23;21.90;99.90
14182;DHT22;7171;50.936;6.764;2023-07-31T14:54:50;21.90;99.90
14182;DHT22;7171;50.936;6.764;2023-07-31T14:57:16;21.90;99.90
14182;DHT22;7171;50.936;6.764;2023-07-31T14:59:43;21.90;99.90
14182;DHT22;7171;50.936;6.764;2023-07-31T15:02:10;21.90;99.90
14182;DHT22;7171;50.936;6.764;2023-07-31T15:04:39;21.80;99.90
14182;DHT22;7171;50.936;6.764;2023-07-31T15:07:06;21.80;99.90
14182;DHT22;7171;50.936;6.764;2023-07-31T15:09:32;21.80;99.90
14182;DHT22;7171;50.936;6.764;2023-07-31T15:11:59;21.70;99.90
14182;DHT22;7171;50.936;6.764;2023-07-31T15:14:26;21.70;99.90
14182;DHT22;7171;50.936;6.764;2023-07-31T15:16:53;21.60;99.90
14182;DHT22;7171;50.936;6.764;2023-07-31T15:19:20;21.60;99.90
14182;DHT22;7171;50.936;6.764;2023-07-31T15:21:49;21.60;99.90
14182;DHT22;7171;50.936;6.764;2023-07-31T15:24:16;21.60;99.90
14182;DHT22;7171;50.936;6.764;2023-07-31T15:26:43;21.60;99.90
14182;DHT22;7171;50.936;6.764;2023-07-31T15:29:09;21.50;99.90
14182;DHT22;7171;50.936;6.764;2023-07-31T15:31:41;21.50;99.90
14182;DHT22;7171;50.936;6.764;2023-07-31T15:34:07;21.50;99.90
14182;DHT22;7171;50.936;6.764;2023-07-31T15:36:34;21.50;99.90
14182;DHT22;7171;50.936;6.764;2023-07-31T15:39:02;21.40;99.90
14182;DHT22;7171;50.936;6.764;2023-07-31T15:41:29;21.40;99.90
14182;DHT22;7171;50.936;6.764;2023-07-31T15:43:56;21.50;99.90
14182;DHT22;7171;50.936;6.764;2023-07-31T15:46:23;21.40;99.90
14182;DHT22;7171;50.936;6.764;2023-07-31T15:48:49;21.40;99.90